Time;durP1;ratioP1;P1;durP2;ratioP2;P2;SDS_P1;SDS_P2;PMS_P1;PMS_P2;Temp;Humidity;BMP_temperature;BMP_pressure;BME280_temperature;BME280_humidity;BME280_pressure;Samples;Min_cycle;Max_cycle;Signal;HPM_P1;HPM_P2
2023/02/04 00:00:08;;;;;;;;;8.50;7.00;;;;;11.23;100.00;103329.22;4983478;28;46387;-83
2023/02/04 00:02:33;;;;;;;;;6.75;6.75;;;;;11.22;100.00;103334.44;4974647;28;45489;-83
2023/02/04 00:04:59;;;;;;;;;9.00;6.50;;;;;11.22;100.00;103327.47;4974681;28;45419;-83
2023/02/04 00:07:24;;;;;;;;;11.00;6.00;;;;;11.19;100.00;103319.63;4974268;28;45881;-82
2023/02/04 00:09:50;;;;;;;;;9.50;8.00;;;;;11.22;100.00;103319.66;4974931;28;45391;-82
2023/02/04 00:12:16;;;;;;;;;11.00;7.50;;;;;11.24;100.00;103320.53;4973710;28;45407;-83
2023/02/04 00:14:41;;;;;;;;;9.25;7.00;;;;;11.21;100.00;103323.13;4974853;28;45487;-83
2023/02/04 00:17:06;;;;;;;;;11.50;8.50;;;;;11.23;100.00;103323.13;4973015;28;52110;-83
2023/02/04 00:19:32;;;;;;;;;10.50;7.00;;;;;11.30;100.00;103326.69;4957491;28;45640;-83
2023/02/04 00:21:58;;;;;;;;;10.25;6.00;;;;;11.28;100.00;103320.59;4973798;28;45436;-84
2023/02/04 00:24:23;;;;;;;;;8.25;8.25;;;;;11.24;100.00;103317.94;4974695;28;45371;-83
2023/02/04 00:26:48;;;;;;;;;11.75;9.00;;;;;11.22;100.00;103318.81;4972970;28;60268;-83
2023/02/04 00:29:14;;;;;;;;;7.25;7.00;;;;;11.23;100.00;103320.53;4972597;28;67715;-83
2023/02/04 00:31:39;;;;;;;;;10.00;9.75;;;;;11.24;100.00;103315.34;4968932;28;45508;-83
2023/02/04 00:34:04;;;;;;;;;10.50;7.00;;;;;11.32;100.00;103315.41;4958162;28;45447;-83
2023/02/04 00:36:30;;;;;;;;;7.75;3.50;;;;;11.33;100.00;103314.56;4972737;28;67345;-83
2023/02/04 00:38:55;;;;;;;;;10.25;9.00;;;;;11.26;100.00;103311.88;4974581;28;45324;-83
2023/02/04 00:41:20;;;;;;;;;9.50;6.00;;;;;11.21;100.00;103309.22;4974549;28;47757;-83
2023/02/04 00:43:46;;;;;;;;;10.50;8.00;;;;;11.19;100.00;103309.19;4973216;28;45408;-83
2023/02/04 00:46:11;;;;;;;;;8.00;6.75;;;;;11.20;100.00;103302.28;4974331;28;46412;-83
2023/02/04 00:48:36;;;;;;;;;11.00;8.00;;;;;11.17;100.00;103310.06;4973451;28;60393;-83
2023/02/04 00:51:02;;;;;;;;;13.75;7.75;;;;;11.13;100.00;103303.06;4974343;28;45280;-83
2023/02/04 00:53:27;;;;;;;;;11.75;10.00;;;;;11.12;100.00;103314.34;4974587;28;45289;-83
2023/02/04 00:55:53;;;;;;;;;11.50;8.00;;;;;11.14;100.00;103312.63;4972784;28;58908;-84
2023/02/04 00:58:18;;;;;;;;;7.75;6.50;;;;;11.13;100.00;103305.66;4974195;28;45336;-83
2023/02/04 01:00:43;;;;;;;;;8.00;7.50;;;;;11.11;100.00;103310.88;4972449;28;55599;-83
2023/02/04 01:03:09;;;;;;;;;4.25;3.00;;;;;11.10;100.00;103311.72;4956272;28;45532;-83
2023/02/04 01:05:34;;;;;;;;;14.50;8.25;;;;;11.12;100.00;103312.59;4973997;27;45185;-83
2023/02/04 01:07:59;;;;;;;;;11.25;6.00;;;;;11.11;100.00;103316.06;4973730;28;54835;-83
2023/02/04 01:10:25;;;;;;;;;12.75;10.25;;;;;11.12;100.00;103316.94;4974145;27;45494;-83
2023/02/04 01:12:51;;;;;;;;;11.00;6.00;;;;;11.14;100.00;103320.44;4984966;28;45402;-83
2023/02/04 01:15:16;;;;;;;;;13.50;10.00;;;;;11.13;100.00;103313.50;4993784;28;45546;-83
2023/02/04 01:17:41;;;;;;;;;10.75;7.50;;;;;11.11;100.00;103326.50;5040813;27;45255;-83
2023/02/04 01:20:08;;;;;;;;;9.00;9.00;;;;;11.12;100.00;103328.25;5062011;27;45462;-83
2023/02/04 01:22:33;;;;;;;;;12.25;9.75;;;;;11.15;100.00;103324.81;5078783;27;45537;-83
2023/02/04 01:24:59;;;;;;;;;16.25;7.25;;;;;11.16;100.00;103326.53;5078808;27;45308;-83
2023/02/04 01:27:24;;;;;;;;;11.50;7.50;;;;;11.18;100.00;103324.81;5096515;27;54894;-83
2023/02/04 01:29:49;;;;;;;;;11.00;7.00;;;;;11.17;100.00;103330.91;5096506;27;56826;-83
2023/02/04 01:32:15;;;;;;;;;8.75;7.75;;;;;11.17;100.00;103334.38;5096146;27;58964;-82
2023/02/04 01:34:40;;;;;;;;;11.00;8.25;;;;;11.17;100.00;103326.56;5088047;27;45320;-83
2023/02/04 01:37:05;;;;;;;;;11.00;8.25;;;;;11.20;100.00;103330.94;5075855;27;62006;-83
2023/02/04 01:39:32;;;;;;;;;10.25;7.25;;;;;11.24;100.00;103333.59;5058347;28;45359;-83
2023/02/04 01:41:59;;;;;;;;;10.75;8.00;;;;;11.23;100.00;103333.56;5058583;28;45586;-83
2023/02/04 01:44:27;;;;;;;;;7.75;7.00;;;;;11.20;100.00;103330.94;5058173;28;45457;-82
2023/02/04 01:46:53;;;;;;;;;11.25;8.50;;;;;11.19;100.00;103340.47;5058661;28;45802;-83
2023/02/04 01:49:19;;;;;;;;;17.50;9.50;;;;;11.19;100.00;103335.25;5058300;28;45415;-83
2023/02/04 01:51:44;;;;;;;;;13.50;11.00;;;;;11.19;100.00;103334.41;5058122;28;45551;-83
2023/02/04 01:54:11;;;;;;;;;15.25;10.00;;;;;11.19;100.00;103340.47;5074477;28;60096;-82
2023/02/04 01:56:36;;;;;;;;;8.00;6.00;;;;;11.15;100.00;103338.72;5057986;28;45800;-83
2023/02/04 01:59:11;;;;;;;;;12.00;10.00;;;;;11.12;100.00;103330.84;5040112;28;63373;-83
2023/02/04 02:01:39;;;;;;;;;9.50;9.50;;;;;11.12;100.00;103336.06;5075025;27;45511;-83
2023/02/04 02:04:04;;;;;;;;;12.00;8.50;;;;;11.11;100.00;103334.31;5058217;28;46270;-83
2023/02/04 02:06:30;;;;;;;;;10.75;8.00;;;;;11.11;100.00;103325.63;5058034;28;45438;-83
2023/02/04 02:08:57;;;;;;;;;11.00;8.00;;;;;11.11;100.00;103323.91;5075848;28;58737;-83
2023/02/04 02:11:25;;;;;;;;;10.50;9.25;;;;;11.11;100.00;103318.69;5058039;28;45540;-83
2023/02/04 02:13:51;;;;;;;;;7.25;7.25;;;;;11.12;100.00;103325.63;5076539;27;45399;-83
2023/02/04 02:16:17;;;;;;;;;17.25;10.25;;;;;11.15;100.00;103327.41;5079896;27;45305;-83
2023/02/04 02:18:44;;;;;;;;;10.50;7.00;;;;;11.15;100.00;103320.47;4984707;28;59045;-83
2023/02/04 02:21:13;;;;;;;;;10.75;9.00;;;;;11.16;100.00;103313.50;4976767;28;45365;-82
2023/02/04 02:23:59;;;;;;;;;13.75;10.00;;;;;11.16;100.00;103306.56;4974840;28;46155;-83
2023/02/04 02:26:26;;;;;;;;;18.00;10.75;;;;;11.18;100.00;103307.47;4976388;28;45692;-83
2023/02/04 02:28:51;;;;;;;;;10.50;7.75;;;;;11.18;100.00;103312.69;4974150;28;55579;-83
2023/02/04 02:31:19;;;;;;;;;12.25;9.00;;;;;11.17;100.00;103304.84;4975336;28;45781;-83
2023/02/04 02:33:45;;;;;;;;;14.50;8.50;;;;;11.17;100.00;103310.91;4974954;28;46654;-83
2023/02/04 02:36:10;;;;;;;;;17.25;7.75;;;;;11.17;100.00;103308.31;4991065;28;45949;-83
2023/02/04 02:38:36;;;;;;;;;12.25;10.75;;;;;11.17;100.00;103307.44;4976206;28;45385;-83
2023/02/04 02:41:02;;;;;;;;;11.50;8.50;;;;;11.18;100.00;103310.06;4974989;28;45318;-83
2023/02/04 02:43:29;;;;;;;;;15.00;9.00;;;;;11.23;100.00;103313.56;4975573;28;46476;-83
2023/02/04 02:45:56;;;;;;;;;16.25;10.25;;;;;11.19;100.00;103313.53;4975964;28;45824;-83
2023/02/04 02:48:22;;;;;;;;;11.75;7.25;;;;;11.16;100.00;103317.00;4974965;28;45407;-83
2023/02/04 02:50:47;;;;;;;;;14.50;11.75;;;;;11.16;100.00;103321.31;4974809;28;45339;-83
2023/02/04 02:53:16;;;;;;;;;12.50;8.50;;;;;11.12;100.00;103316.94;4974736;28;46491;-83
2023/02/04 02:55:42;;;;;;;;;13.75;9.50;;;;;11.08;100.00;103321.25;4974742;28;45672;-83
2023/02/04 02:58:28;;;;;;;;;12.50;8.50;;;;;11.05;100.00;103316.03;4974459;28;45368;-83
2023/02/04 03:00:55;;;;;;;;;15.50;8.00;;;;;11.05;100.00;103321.25;4975628;28;45594;-83
2023/02/04 03:03:26;;;;;;;;;17.00;11.75;;;;;11.03;100.00;103326.44;4974613;28;45664;-83
2023/02/04 03:05:54;;;;;;;;;10.50;8.00;;;;;11.02;100.00;103322.06;4974709;28;45873;-83
2023/02/04 03:08:20;;;;;;;;;17.00;12.00;;;;;11.02;100.00;103318.59;4976052;27;45390;-82
2023/02/04 03:10:46;;;;;;;;;14.00;11.75;;;;;11.00;100.00;103322.91;4974926;28;58791;-83
2023/02/04 03:13:13;;;;;;;;;13.00;11.50;;;;;10.97;100.00;103320.25;4954016;28;56978;-83
2023/02/04 03:15:38;;;;;;;;;13.25;10.25;;;;;10.94;100.00;103320.22;4955204;28;45791;-83
2023/02/04 03:18:04;;;;;;;;;8.00;7.25;;;;;10.93;100.00;103321.09;5018805;28;45261;-83
2023/02/04 03:20:30;;;;;;;;;9.50;6.50;;;;;10.90;100.00;103319.34;5039646;28;64364;-82
2023/02/04 03:22:56;;;;;;;;;10.75;8.00;;;;;10.88;100.00;103318.44;5040210;28;46373;-82
2023/02/04 03:25:25;;;;;;;;;11.00;9.00;;;;;10.88;100.00;103321.03;5039554;28;45405;-83
2023/02/04 03:27:53;;;;;;;;;12.25;11.00;;;;;10.88;100.00;103315.81;5040517;28;45294;-83
2023/02/04 03:30:19;;;;;;;;;11.75;9.00;;;;;10.90;100.00;103321.94;5058216;28;45670;-83
2023/02/04 03:32:44;;;;;;;;;19.50;10.00;;;;;10.89;100.00;103322.78;5040059;28;46332;-83
2023/02/04 03:35:10;;;;;;;;;10.75;9.50;;;;;10.89;100.00;103321.94;5070147;27;58394;-83
2023/02/04 03:37:35;;;;;;;;;15.50;11.00;;;;;10.85;100.00;103316.66;5078246;28;45417;-82
2023/02/04 03:40:00;;;;;;;;;12.25;10.50;;;;;10.85;100.00;103321.00;5077829;27;55991;-82
2023/02/04 03:42:26;;;;;;;;;16.50;13.25;;;;;10.85;100.00;103321.00;5077576;28;54645;-83
2023/02/04 03:44:51;;;;;;;;;10.75;9.00;;;;;10.86;100.00;103320.13;5077646;28;53354;-83
2023/02/04 03:47:16;;;;;;;;;11.50;9.50;;;;;10.85;100.00;103319.28;5078226;27;45431;-83
2023/02/04 03:49:42;;;;;;;;;19.25;11.00;;;;;10.87;100.00;103321.03;5076169;27;59950;-83
2023/02/04 03:52:07;;;;;;;;;20.00;8.25;;;;;10.85;100.00;103329.69;5077894;28;45406;-83
2023/02/04 03:54:32;;;;;;;;;10.25;6.25;;;;;10.87;100.00;103324.50;5077398;28;63888;-82
2023/02/04 03:56:58;;;;;;;;;12.25;11.00;;;;;10.85;100.00;103327.09;5077083;27;55964;-83
2023/02/04 03:59:23;;;;;;;;;9.00;7.50;;;;;10.83;100.00;103327.94;5060402;28;46697;-82
2023/02/04 04:01:48;;;;;;;;;15.75;11.50;;;;;10.79;100.00;103321.81;5059550;28;45488;-83
2023/02/04 04:04:14;;;;;;;;;15.75;10.50;;;;;10.80;100.00;103327.91;5059641;28;51931;-83
2023/02/04 04:06:39;;;;;;;;;14.25;9.00;;;;;10.80;100.00;103335.72;5059549;28;48208;-83
2023/02/04 04:09:04;;;;;;;;;16.00;11.50;;;;;10.81;100.00;103340.09;5059400;28;56676;-83
2023/02/04 04:11:30;;;;;;;;;10.75;8.50;;;;;10.80;100.00;103340.94;5059156;28;45419;-82
2023/02/04 04:13:56;;;;;;;;;19.50;11.25;;;;;10.80;100.00;103338.31;5042396;28;51434;-83
2023/02/04 04:16:21;;;;;;;;;9.00;6.75;;;;;10.82;100.00;103344.41;5076946;27;62128;-83
2023/02/04 04:18:47;;;;;;;;;17.00;10.00;;;;;10.85;100.00;103336.66;5076968;27;50195;-83
2023/02/04 04:21:12;;;;;;;;;11.75;9.25;;;;;10.84;100.00;103338.34;5042309;28;47139;-82
2023/02/04 04:23:38;;;;;;;;;15.75;11.00;;;;;10.84;100.00;103340.09;5058907;27;50081;-82
2023/02/04 04:26:03;;;;;;;;;14.50;8.00;;;;;10.84;100.00;103338.34;5059217;28;45398;-83
2023/02/04 04:28:29;;;;;;;;;16.75;10.00;;;;;10.85;100.00;103347.94;5077413;27;45563;-83
2023/02/04 04:30:54;;;;;;;;;18.50;8.25;;;;;10.84;100.00;103342.72;5059254;28;46281;-83
2023/02/04 04:33:19;;;;;;;;;14.25;10.75;;;;;10.84;100.00;103340.09;5059423;28;45594;-83
2023/02/04 04:35:45;;;;;;;;;12.25;11.25;;;;;10.82;100.00;103342.69;5076045;27;63607;-83
2023/02/04 04:38:10;;;;;;;;;18.50;9.50;;;;;10.80;100.00;103343.53;5076249;28;62139;-83
2023/02/04 04:40:36;;;;;;;;;14.50;11.00;;;;;10.80;100.00;103344.41;5076226;28;68214;-82
2023/02/04 04:43:01;;;;;;;;;13.25;11.00;;;;;10.81;100.00;103351.38;5058908;28;45452;-83
2023/02/04 04:45:27;;;;;;;;;10.75;9.75;;;;;10.83;100.00;103356.59;5077535;28;45286;-83
2023/02/04 04:47:52;;;;;;;;;13.00;7.25;;;;;10.83;100.00;103352.25;5059078;28;45647;-83
2023/02/04 04:50:17;;;;;;;;;9.50;7.50;;;;;10.85;100.00;103352.28;5058851;28;47138;-83
2023/02/04 04:52:43;;;;;;;;;14.25;10.50;;;;;10.87;100.00;103353.19;5076693;27;51850;-83
2023/02/04 04:55:08;;;;;;;;;15.00;11.00;;;;;10.87;100.00;103352.31;5076474;28;54051;-82
2023/02/04 04:57:34;;;;;;;;;12.25;10.50;;;;;10.89;100.00;103356.66;5077297;27;45282;-83
2023/02/04 04:59:59;;;;;;;;;11.50;8.00;;;;;10.90;100.00;103366.25;5074880;27;66805;-83
2023/02/04 05:02:24;;;;;;;;;11.75;10.00;;;;;10.92;100.00;103361.03;5075606;28;49879;-82
2023/02/04 05:04:50;;;;;;;;;14.75;6.00;;;;;10.92;100.00;103356.72;5058375;28;58066;-83
2023/02/04 05:07:15;;;;;;;;;11.25;10.00;;;;;10.93;100.00;103363.66;5076827;27;45273;-83
2023/02/04 05:09:40;;;;;;;;;11.75;10.50;;;;;10.91;100.00;103357.56;5057554;28;66335;-83
2023/02/04 05:12:06;;;;;;;;;11.75;8.00;;;;;10.89;100.00;103361.00;5076121;27;55856;-83
2023/02/04 05:14:31;;;;;;;;;16.50;7.75;;;;;10.88;100.00;103354.91;5076868;28;45654;-83
2023/02/04 05:16:57;;;;;;;;;11.50;7.50;;;;;10.86;100.00;103359.22;5058351;28;45545;-83
2023/02/04 05:19:22;;;;;;;;;8.75;7.25;;;;;10.82;100.00;103354.84;5076656;27;46235;-83
2023/02/04 05:21:47;;;;;;;;;9.75;7.00;;;;;10.81;100.00;103359.19;5076248;28;53547;-83
2023/02/04 05:24:13;;;;;;;;;10.50;7.00;;;;;10.84;100.00;103360.94;5076397;28;45660;-83
2023/02/04 05:26:38;;;;;;;;;12.25;8.50;;;;;10.87;100.00;103362.72;5058374;28;45392;-83
2023/02/04 05:29:04;;;;;;;;;10.75;8.00;;;;;10.87;100.00;103366.19;5076544;28;45787;-83
2023/02/04 05:31:30;;;;;;;;;14.75;9.00;;;;;10.88;100.00;103360.13;5076409;27;45329;-83
2023/02/04 05:33:55;;;;;;;;;13.75;8.00;;;;;10.87;100.00;103367.94;5076226;27;48616;-83
2023/02/04 05:36:20;;;;;;;;;7.00;7.00;;;;;10.86;100.00;103361.84;5058462;28;45598;-83
2023/02/04 05:38:46;;;;;;;;;10.00;5.75;;;;;10.84;100.00;103363.56;5040368;28;66027;-82
2023/02/04 05:41:11;;;;;;;;;10.00;6.25;;;;;10.81;100.00;103364.41;5075663;28;65752;-82
2023/02/04 05:43:37;;;;;;;;;7.00;7.00;;;;;10.83;100.00;103360.06;5075904;28;60200;-82
2023/02/04 05:46:02;;;;;;;;;10.75;6.25;;;;;10.84;100.00;103366.16;5076665;27;45406;-82
2023/02/04 05:48:27;;;;;;;;;15.00;7.00;;;;;10.85;100.00;103371.38;5074091;27;67217;-83
2023/02/04 05:50:53;;;;;;;;;11.75;6.75;;;;;10.87;100.00;103375.75;5057142;28;58707;-83
2023/02/04 05:53:18;;;;;;;;;6.25;6.00;;;;;10.89;100.00;103379.25;5076513;28;45493;-83
2023/02/04 05:55:43;;;;;;;;;9.50;7.00;;;;;10.90;100.00;103386.19;5075793;28;57778;-83
2023/02/04 05:58:09;;;;;;;;;13.50;9.75;;;;;10.89;100.00;103376.66;5073785;28;71488;-83
2023/02/04 06:00:34;;;;;;;;;7.00;6.50;;;;;10.90;100.00;103386.19;5076103;28;45418;-83
2023/02/04 06:03:00;;;;;;;;;8.00;7.50;;;;;10.90;100.00;103381.00;5075536;28;57041;-82
2023/02/04 06:05:25;;;;;;;;;16.50;7.75;;;;;10.89;100.00;103384.47;5057557;28;45332;-83
2023/02/04 06:07:51;;;;;;;;;11.75;5.25;;;;;10.88;100.00;103386.19;5058040;28;45503;-82
2023/02/04 06:10:16;;;;;;;;;8.50;7.00;;;;;10.92;100.00;103392.31;5075519;28;64683;-82
2023/02/04 06:12:41;;;;;;;;;7.75;7.25;;;;;10.96;100.00;103394.13;5057740;27;45519;-83
2023/02/04 06:15:07;;;;;;;;;11.25;8.00;;;;;10.96;100.00;103394.13;5075868;27;63348;-83
2023/02/04 06:17:33;;;;;;;;;8.00;5.00;;;;;10.98;100.00;103398.47;5075544;28;45270;-83
2023/02/04 06:19:58;;;;;;;;;9.50;8.00;;;;;10.97;100.00;103395.84;5040868;28;45693;-83
2023/02/04 06:22:24;;;;;;;;;16.25;10.00;;;;;10.93;100.00;103388.84;5058068;28;45346;-83
2023/02/04 06:24:50;;;;;;;;;11.50;7.00;;;;;10.90;100.00;103394.03;5075715;28;45514;-83
2023/02/04 06:27:22;;;;;;;;;9.50;5.50;;;;;10.88;100.00;103388.78;5057726;28;46391;-83
2023/02/04 06:29:51;;;;;;;;;8.25;6.00;;;;;10.87;100.00;103388.78;5075833;28;45698;-82
2023/02/04 06:32:17;;;;;;;;;14.25;7.75;;;;;10.86;100.00;103382.69;5075930;27;45465;-83
2023/02/04 06:34:44;;;;;;;;;12.50;8.00;;;;;10.87;100.00;103379.22;5057405;28;45371;-83
2023/02/04 06:37:10;;;;;;;;;11.00;7.00;;;;;10.82;100.00;103379.16;5057737;28;45392;-83
2023/02/04 06:39:35;;;;;;;;;12.75;9.00;;;;;10.82;100.00;103379.16;5075708;28;45715;-83
2023/02/04 06:42:01;;;;;;;;;7.25;7.00;;;;;10.82;100.00;103381.75;5056944;28;59625;-82
2023/02/04 06:44:26;;;;;;;;;6.75;4.50;;;;;10.82;100.00;103379.16;5074997;27;57216;-83
2023/02/04 06:46:51;;;;;;;;;10.25;8.00;;;;;10.88;100.00;103382.69;5075252;28;50838;-83
2023/02/04 06:49:17;;;;;;;;;9.00;7.75;;;;;10.89;100.00;103381.88;5057339;28;45292;-83
2023/02/04 06:51:42;;;;;;;;;9.00;6.25;;;;;10.88;100.00;103390.53;5056866;28;63275;-83
2023/02/04 06:54:07;;;;;;;;;9.00;7.00;;;;;10.86;100.00;103382.69;5074847;27;60284;-83
2023/02/04 06:56:33;;;;;;;;;10.50;7.50;;;;;10.82;100.00;103376.56;5073899;27;61563;-83
2023/02/04 06:58:58;;;;;;;;;10.00;7.00;;;;;10.82;100.00;103379.16;5075030;28;54268;-83
2023/02/04 07:01:24;;;;;;;;;9.25;7.75;;;;;10.80;100.00;103375.66;5079094;28;45707;-83
2023/02/04 07:03:49;;;;;;;;;17.25;8.00;;;;;10.77;100.00;103388.69;5060106;28;53176;-83
2023/02/04 07:06:14;;;;;;;;;9.00;7.00;;;;;10.73;100.00;103380.78;5060698;27;45352;-83
2023/02/04 07:08:40;;;;;;;;;16.00;10.25;;;;;10.71;100.00;103385.97;5078849;27;45365;-83
2023/02/04 07:11:06;;;;;;;;;6.75;5.25;;;;;10.70;100.00;103381.63;5078748;27;45452;-83
2023/02/04 07:13:31;;;;;;;;;10.00;7.00;;;;;10.71;100.00;103390.31;5078644;27;45450;-83
2023/02/04 07:15:56;;;;;;;;;14.75;8.50;;;;;10.67;100.00;103383.31;5078343;27;53741;-84
2023/02/04 07:18:22;;;;;;;;;10.25;8.00;;;;;10.65;100.00;103393.72;4995501;28;51879;-82
2023/02/04 07:20:47;;;;;;;;;10.75;10.75;;;;;10.64;100.00;103395.44;4975561;28;45352;-81
2023/02/04 07:23:12;;;;;;;;;10.25;7.75;;;;;10.67;100.00;103391.13;4975563;28;45292;-81
2023/02/04 07:25:38;;;;;;;;;10.00;8.00;;;;;10.71;100.00;103395.53;4975451;28;46183;-81
2023/02/04 07:28:04;;;;;;;;;13.50;10.00;;;;;10.71;100.00;103399.00;4974435;28;63065;-81
2023/02/04 07:30:32;;;;;;;;;8.00;6.50;;;;;10.74;100.00;103411.22;4976476;28;45368;-81
2023/02/04 07:32:58;;;;;;;;;8.00;8.00;;;;;10.71;100.00;103406.81;4974781;28;45801;-81
2023/02/04 07:35:23;;;;;;;;;19.25;11.00;;;;;10.71;100.00;103409.41;4973465;28;50334;-81
2023/02/04 07:37:49;;;;;;;;;13.25;9.50;;;;;10.71;100.00;103414.63;4974496;28;64848;-82
2023/02/04 07:40:15;;;;;;;;;10.00;7.25;;;;;10.75;100.00;103423.34;4975358;28;45307;-81
2023/02/04 07:42:40;;;;;;;;;14.00;11.25;;;;;10.76;100.00;103417.31;4974182;28;45609;-81
2023/02/04 07:45:06;;;;;;;;;9.50;7.75;;;;;10.80;100.00;103421.69;4973728;28;46618;-80
2023/02/04 07:47:31;;;;;;;;;11.50;9.00;;;;;10.84;100.00;103420.88;4973529;28;45603;-81
2023/02/04 07:49:56;;;;;;;;;15.50;10.75;;;;;10.89;100.00;103432.25;4972575;28;62521;-79
2023/02/04 07:52:23;;;;;;;;;13.50;8.00;;;;;10.90;100.00;103427.91;4973640;28;64934;-80
2023/02/04 07:54:48;;;;;;;;;16.25;10.25;;;;;10.94;100.00;103429.69;4974423;28;45569;-79
2023/02/04 07:57:13;;;;;;;;;10.00;6.50;;;;;11.00;100.00;103438.47;4974899;28;45380;-80
2023/02/04 07:59:39;;;;;;;;;13.75;11.00;;;;;11.04;100.00;103434.16;4971838;28;57066;-82
2023/02/04 08:02:04;;;;;;;;;14.25;11.00;;;;;11.07;100.00;103435.91;4961965;28;45367;-80
2023/02/04 08:04:30;;;;;;;;;11.25;9.00;;;;;11.09;100.00;103439.41;4974308;28;51762;-80
2023/02/04 08:06:55;;;;;;;;;11.00;8.50;;;;;11.10;100.00;103441.19;4974849;28;45429;-82
2023/02/04 08:09:20;;;;;;;;;15.75;10.50;;;;;11.11;100.00;103451.63;4973874;28;56560;-80
2023/02/04 08:11:45;;;;;;;;;15.25;7.00;;;;;11.15;100.00;103450.81;4973401;28;45330;-81
2023/02/04 08:14:11;;;;;;;;;16.50;11.00;;;;;11.17;100.00;103451.69;4973414;28;46023;-81
2023/02/04 08:16:37;;;;;;;;;16.00;11.75;;;;;11.22;100.00;103441.34;4973656;28;45471;-80
2023/02/04 08:19:03;;;;;;;;;13.00;9.00;;;;;11.24;100.00;103450.03;5077139;28;45268;-82
2023/02/04 08:21:28;;;;;;;;;14.50;11.25;;;;;11.25;100.00;103443.97;5078537;27;45376;-81
2023/02/04 08:23:53;;;;;;;;;19.00;12.50;;;;;11.27;100.00;103454.41;5058787;28;46211;-79
2023/02/04 08:26:19;;;;;;;;;12.00;10.00;;;;;11.30;100.00;103449.25;5057875;28;66354;-81
2023/02/04 08:28:44;;;;;;;;;15.25;10.50;;;;;11.31;100.00;103453.59;5077214;28;45233;-81
2023/02/04 08:31:10;;;;;;;;;17.50;10.25;;;;;11.32;100.00;103445.78;5076365;28;59571;-81
2023/02/04 08:33:39;;;;;;;;;11.25;8.00;;;;;11.32;100.00;103450.13;5077154;27;46388;-82
2023/02/04 08:36:07;;;;;;;;;9.25;8.50;;;;;11.32;100.00;103457.94;5097422;27;45766;-81
2023/02/04 08:38:32;;;;;;;;;10.50;10.00;;;;;11.33;100.00;103455.38;5077693;27;45334;-81
2023/02/04 08:40:58;;;;;;;;;15.50;11.25;;;;;11.31;100.00;103457.09;5077321;28;45392;-80
2023/02/04 08:43:24;;;;;;;;;11.00;10.00;;;;;11.34;100.00;103456.22;5060812;27;45472;-81
2023/02/04 08:45:50;;;;;;;;;9.50;8.00;;;;;11.31;100.00;103454.47;5076709;27;45365;-81
2023/02/04 08:48:15;;;;;;;;;11.75;10.00;;;;;11.31;100.00;103461.41;5076021;27;65859;-79
2023/02/04 08:50:40;;;;;;;;;22.50;16.00;;;;;11.30;100.00;103457.94;5077024;28;45451;-80
2023/02/04 08:53:06;;;;;;;;;8.75;6.50;;;;;11.28;100.00;103461.38;5076029;27;53123;-81
2023/02/04 08:55:31;;;;;;;;;13.00;9.50;;;;;11.26;100.00;103463.97;5075783;27;66319;-80
2023/02/04 08:57:57;;;;;;;;;8.50;6.25;;;;;11.24;100.00;103463.09;5075325;28;61414;-80
2023/02/04 09:00:23;;;;;;;;;10.00;7.25;;;;;11.27;100.00;103465.72;5076565;28;45335;-81
2023/02/04 09:02:49;;;;;;;;;10.00;7.00;;;;;11.30;100.00;103467.50;5056408;28;45459;-81
2023/02/04 09:05:14;;;;;;;;;9.50;6.25;;;;;11.28;100.00;103467.47;5056222;28;50131;-80
2023/02/04 09:07:39;;;;;;;;;14.75;7.50;;;;;11.23;100.00;103466.53;5074677;27;45852;-80
2023/02/04 09:10:05;;;;;;;;;9.00;7.00;;;;;11.11;100.00;103464.66;5076299;27;46669;-80
2023/02/04 09:12:30;;;;;;;;;11.25;8.75;;;;;11.05;100.00;103472.41;5075552;28;45540;-81
2023/02/04 09:14:56;;;;;;;;;7.00;6.50;;;;;10.97;100.00;103468.81;5073591;27;58717;-81
2023/02/04 09:17:21;;;;;;;;;15.25;8.00;;;;;10.91;100.00;103472.22;5053531;28;47170;-80
2023/02/04 09:19:46;;;;;;;;;10.50;10.50;;;;;10.85;100.00;103472.16;4972653;28;45490;-81
2023/02/04 09:22:12;;;;;;;;;9.50;6.00;;;;;10.77;100.00;103468.53;5014558;28;45440;-80
2023/02/04 09:24:37;;;;;;;;;6.75;6.00;;;;;10.74;100.00;103473.72;4990277;28;45449;-79
2023/02/04 09:27:03;;;;;;;;;8.25;7.00;;;;;10.73;100.00;103474.56;4971401;28;45300;-81
2023/02/04 09:29:28;;;;;;;;;11.75;8.50;;;;;10.69;100.00;103478.84;4972759;28;63466;-81
2023/02/04 09:31:54;;;;;;;;;8.50;7.00;;;;;10.69;100.00;103481.47;4972530;28;72533;-80
2023/02/04 09:34:19;;;;;;;;;9.50;7.00;;;;;10.67;100.00;103477.97;4972684;28;45316;-80
2023/02/04 09:36:45;;;;;;;;;5.75;5.75;;;;;10.68;100.00;103479.72;4971872;27;45486;-81
2023/02/04 09:39:10;;;;;;;;;8.00;5.00;;;;;10.73;100.00;103477.19;4971147;28;45944;-80
2023/02/04 09:41:37;;;;;;;;;11.00;6.25;;;;;10.75;100.00;103478.06;4972393;28;46016;-80
2023/02/04 09:44:04;;;;;;;;;7.50;7.00;;;;;10.68;100.00;103469.31;4971706;28;45818;-79
2023/02/04 09:46:30;;;;;;;;;8.00;6.00;;;;;10.66;100.00;103484.03;4972445;28;45488;-79
2023/02/04 09:48:58;;;;;;;;;11.00;6.75;;;;;10.63;100.00;103482.25;4972426;28;45382;-80
2023/02/04 09:51:28;;;;;;;;;10.50;9.75;;;;;10.64;100.00;103481.41;4989447;28;45472;-79
2023/02/04 09:54:01;;;;;;;;;10.00;6.50;;;;;10.63;100.00;103479.66;4978452;28;45575;-80
2023/02/04 09:56:26;;;;;;;;;9.75;7.50;;;;;10.66;100.00;103486.66;5054679;27;45638;-78
2023/02/04 09:58:52;;;;;;;;;5.25;5.25;;;;;10.68;100.00;103484.94;4965547;28;45495;-81
2023/02/04 10:01:19;;;;;;;;;9.50;5.25;;;;;10.75;100.00;103491.97;4989774;28;46622;-80
2023/02/04 10:03:46;;;;;;;;;5.00;5.00;;;;;10.84;100.00;103496.44;5021359;27;45431;-80
2023/02/04 10:06:17;;;;;;;;;10.50;7.50;;;;;10.84;100.00;103499.03;5013347;28;45570;-81
2023/02/04 10:08:43;;;;;;;;;11.00;6.75;;;;;10.84;100.00;103497.31;4994911;28;46486;-80
2023/02/04 10:11:12;;;;;;;;;10.00;8.75;;;;;10.88;100.00;103507.78;4984738;28;46051;-81
2023/02/04 10:13:42;;;;;;;;;11.25;10.00;;;;;10.91;100.00;103500.88;4972141;28;45836;-80
2023/02/04 10:16:17;;;;;;;;;7.00;7.00;;;;;10.96;100.00;103512.25;5015462;28;45370;-80
2023/02/04 10:18:43;;;;;;;;;11.00;7.00;;;;;10.98;100.00;103515.75;5030941;28;45785;-80
2023/02/04 10:21:17;;;;;;;;;21.25;10.00;;;;;11.01;100.00;103513.19;4987245;28;45402;-80
2023/02/04 10:23:45;;;;;;;;;13.75;10.75;;;;;10.99;100.00;103512.28;5037680;28;46005;-78
2023/02/04 10:26:11;;;;;;;;;16.75;10.00;;;;;10.96;100.00;103517.47;4962271;28;45320;-79
2023/02/04 10:28:38;;;;;;;;;10.00;8.75;;;;;10.95;100.00;103520.91;4976891;28;45391;-80
2023/02/04 10:31:04;;;;;;;;;16.50;11.25;;;;;11.01;100.00;103517.50;4978138;28;46347;-78
2023/02/04 10:33:30;;;;;;;;;12.50;9.75;;;;;11.06;100.00;103518.47;4980496;28;45564;-79
2023/02/04 10:35:56;;;;;;;;;15.50;11.00;;;;;10.98;100.00;103522.72;4978755;28;45417;-81
2023/02/04 10:38:22;;;;;;;;;11.25;10.25;;;;;11.00;100.00;103518.38;4979625;28;45403;-79
2023/02/04 10:40:58;;;;;;;;;11.50;9.25;;;;;10.96;100.00;103525.28;4981168;28;45447;-81
2023/02/04 10:43:24;;;;;;;;;10.75;8.00;;;;;10.97;100.00;103524.41;4985817;28;45419;-81
2023/02/04 10:45:58;;;;;;;;;12.75;11.50;;;;;10.94;100.00;103524.41;4992259;28;63283;-82
2023/02/04 10:48:24;;;;;;;;;15.75;10.25;;;;;11.01;100.00;103530.56;5025955;28;45499;-81
2023/02/04 10:50:49;;;;;;;;;16.25;12.75;;;;;11.07;100.00;103530.66;5029154;28;45430;-82
2023/02/04 10:56:11;;;;;;;;;16.00;8.50;;;;;11.08;100.00;103524.56;5056154;28;45410;-82
2023/02/04 10:58:36;;;;;;;;;18.25;13.50;;;;;11.15;100.00;103522.94;4975804;28;45489;-82
2023/02/04 11:01:01;;;;;;;;;13.75;10.75;;;;;11.24;100.00;103526.53;4978813;28;66422;-82
2023/02/04 11:03:31;;;;;;;;;19.25;15.00;;;;;11.32;100.00;103515.31;5045062;28;45591;-82
2023/02/04 11:05:58;;;;;;;;;17.00;16.25;;;;;11.46;100.00;103521.59;4963597;28;45407;-81